EGMD/LYX METAR and TAF weather

Enter ICAO airport designator
Station Type Date Time Source
EGMD METAR 2018/01/24 07:20 UTC NOAA

EGMD 240720Z AUTO 20024KT 9999 FEW009/// BKN014/// OVC019/// 12/11 Q1011


Station Type Date Time Source
EGMD Decoded METAR 2018/01/24 07:20 UTC NOAA

Lydd Airport , United Kingdom (EGMD) 50-57N 000-56E
Jan 24, 2018 - 02:20 AM EST / 2018.01.24 0720 UTC
Wind: from the SSW (200 degrees) at 28 MPH (24 KT):0
Visibility: greater than 7 mile(s):0
Sky conditions: overcast
Temperature: 53 F (12 C)
Dew Point: 51 F (11 C)
Relative Humidity: 93%
Pressure (altimeter): 29.85 in. Hg (1011 hPa)
ob: EGMD 240720Z AUTO 20024KT 9999 FEW009/// BKN014/// OVC019/// 12/11 Q1011
cycle: 7

Station Type Date Time Source
EGMD TAF UTC NOAA

Error!


Example: see airport list